createdAt,value
2023-01-30T00:01:45.085Z,1.00
2023-01-30T00:04:17.045Z,1.05
2023-01-30T00:06:46.209Z,1.03
2023-01-30T00:09:15.607Z,1.05
2023-01-30T00:11:44.645Z,1.07
2023-01-30T00:14:13.556Z,1.09
2023-01-30T00:16:42.398Z,1.10
2023-01-30T00:19:11.623Z,1.12
2023-01-30T00:21:40.455Z,1.12
2023-01-30T00:24:09.620Z,1.15
2023-01-30T00:26:38.514Z,1.15
2023-01-30T00:29:07.963Z,1.18
2023-01-30T00:31:37.460Z,1.16
2023-01-30T00:34:06.292Z,1.16
2023-01-30T00:36:37.183Z,1.15
2023-01-30T00:39:06.381Z,1.13
2023-01-30T00:41:50.202Z,1.15
2023-01-30T00:44:37.667Z,1.13
2023-01-30T00:47:08.344Z,1.12
2023-01-30T00:49:38.173Z,1.12
2023-01-30T00:52:07.328Z,1.12
2023-01-30T00:54:40.843Z,1.12
2023-01-30T00:57:09.805Z,1.12
2023-01-30T00:59:38.715Z,1.10
2023-01-30T01:02:07.565Z,1.10
2023-01-30T01:04:42.742Z,1.10
2023-01-30T01:07:15.913Z,1.10
2023-01-30T01:09:45.292Z,1.10
2023-01-30T01:12:14.375Z,1.10
2023-01-30T01:14:47.171Z,1.10
2023-01-30T01:17:16.095Z,1.10
2023-01-30T01:19:45.104Z,1.13
2023-01-30T01:22:13.993Z,1.13
2023-01-30T01:24:42.939Z,1.12
2023-01-30T01:27:11.954Z,1.13
2023-01-30T01:29:42.596Z,1.13
2023-01-30T01:32:12.083Z,1.13
2023-01-30T01:34:42.112Z,1.13
2023-01-30T01:37:11.324Z,1.13
2023-01-30T01:39:58.539Z,1.13
2023-01-30T01:42:34.168Z,1.13
2023-01-30T01:45:15.545Z,1.15
2023-01-30T01:47:49.839Z,1.15
2023-01-30T01:50:22.678Z,1.16
2023-01-30T01:52:54.448Z,1.15
2023-01-30T01:55:29.011Z,1.18
2023-01-30T01:58:03.734Z,1.19
2023-01-30T02:00:33.398Z,1.19
2023-01-30T02:03:07.942Z,1.16
2023-01-30T02:05:42.811Z,1.19
2023-01-30T02:08:18.008Z,1.19
2023-01-30T02:10:54.679Z,1.18
2023-01-30T02:13:26.118Z,1.20
2023-01-30T02:15:59.969Z,1.19
2023-01-30T02:18:31.111Z,1.16
2023-01-30T02:21:43.488Z,1.18
2023-01-30T02:24:39.909Z,1.18
2023-01-30T02:27:26.888Z,1.13
2023-01-30T02:30:23.477Z,1.13
2023-01-30T02:33:06.969Z,1.12
2023-01-30T02:35:47.373Z,1.13
2023-01-30T02:38:31.469Z,1.10
2023-01-30T02:41:11.583Z,1.07
2023-01-30T02:43:52.371Z,1.07
2023-01-30T02:46:26.320Z,1.06
2023-01-30T02:49:02.122Z,1.07
2023-01-30T02:51:35.004Z,1.05
2023-01-30T02:54:07.980Z,1.02
2023-01-30T02:56:49.610Z,1.03
2023-01-30T02:59:27.721Z,0.99
2023-01-30T03:02:32.738Z,1.02
2023-01-30T03:05:18.314Z,1.02
2023-01-30T03:07:59.772Z,1.00
2023-01-30T03:10:37.252Z,1.00
2023-01-30T03:13:17.126Z,0.98
2023-01-30T03:15:52.291Z,0.99
2023-01-30T03:18:22.596Z,0.96
2023-01-30T03:20:52.543Z,0.93
2023-01-30T03:23:22.408Z,0.95
2023-01-30T03:25:51.933Z,0.91
2023-01-30T03:28:21.991Z,0.89
2023-01-30T03:30:51.951Z,0.87
2023-01-30T03:33:21.212Z,0.82
2023-01-30T03:35:52.612Z,0.81
2023-01-30T03:38:21.909Z,0.78
2023-01-30T03:40:52.782Z,0.75
2023-01-30T03:43:22.039Z,0.68
2023-01-30T03:45:51.052Z,0.68
2023-01-30T03:48:20.091Z,0.65
2023-01-30T03:50:49.935Z,0.63
2023-01-30T03:53:19.240Z,0.57
2023-01-30T03:55:48.275Z,0.57
2023-01-30T03:58:19.114Z,0.54
2023-01-30T04:00:49.496Z,0.54
2023-01-30T04:03:19.075Z,0.53
2023-01-30T04:05:48.086Z,0.50
2023-01-30T04:08:17.516Z,0.51
2023-01-30T04:10:46.468Z,0.51
2023-01-30T04:13:15.922Z,0.50
2023-01-30T04:15:44.991Z,0.46
2023-01-30T04:18:33.496Z,0.47
2023-01-30T04:21:11.078Z,0.44
2023-01-30T04:23:42.484Z,0.44
2023-01-30T04:26:13.639Z,0.43
2023-01-30T04:28:44.572Z,0.46
2023-01-30T04:31:19.652Z,0.46
2023-01-30T04:34:21.346Z,0.46
2023-01-30T04:36:51.888Z,0.46
2023-01-30T04:39:22.201Z,0.47
2023-01-30T04:41:52.120Z,0.51
2023-01-30T04:44:21.634Z,0.49
2023-01-30T04:47:18.638Z,0.51
2023-01-30T04:49:47.939Z,0.53
2023-01-30T04:52:17.925Z,0.51
2023-01-30T04:54:46.933Z,0.53
2023-01-30T04:57:17.407Z,0.53
2023-01-30T04:59:46.507Z,0.53
2023-01-30T05:02:16.911Z,0.54
2023-01-30T05:04:48.751Z,0.54
2023-01-30T05:07:19.657Z,0.56
2023-01-30T05:09:51.589Z,0.56
2023-01-30T05:12:20.720Z,0.57
2023-01-30T05:14:49.618Z,0.57
2023-01-30T05:17:18.606Z,0.59
2023-01-30T05:19:47.843Z,0.59
2023-01-30T05:22:16.905Z,0.59
2023-01-30T05:24:46.029Z,0.59
2023-01-30T05:27:14.985Z,0.59
2023-01-30T05:29:45.153Z,0.57
2023-01-30T05:32:15.443Z,0.60
2023-01-30T05:34:44.828Z,0.57
2023-01-30T05:37:14.761Z,0.59
2023-01-30T05:39:43.636Z,0.59
2023-01-30T05:42:12.492Z,0.57
2023-01-30T05:44:41.550Z,0.54
2023-01-30T05:47:10.540Z,0.57
2023-01-30T05:49:39.724Z,0.54
2023-01-30T05:52:09.133Z,0.54
2023-01-30T05:54:38.398Z,0.54
2023-01-30T05:57:07.408Z,0.54
2023-01-30T05:59:36.581Z,0.53
2023-01-30T06:02:06.131Z,0.53
2023-01-30T06:04:35.638Z,0.53
2023-01-30T06:07:07.404Z,0.53
2023-01-30T06:09:36.590Z,0.53
2023-01-30T06:12:08.110Z,0.51
2023-01-30T06:14:37.285Z,0.51
2023-01-30T06:17:06.522Z,0.51
2023-01-30T06:19:35.936Z,0.51
2023-01-30T06:22:06.007Z,0.51
2023-01-30T06:24:35.009Z,0.50
2023-01-30T06:27:04.584Z,0.51
2023-01-30T06:29:34.195Z,0.50
2023-01-30T06:32:03.376Z,0.49
2023-01-30T06:34:33.821Z,0.50
2023-01-30T06:37:03.007Z,0.51
2023-01-30T06:39:32.875Z,0.47
2023-01-30T06:42:02.218Z,0.51
2023-01-30T06:44:32.028Z,0.50
2023-01-30T06:47:01.052Z,0.50
2023-01-30T06:49:29.936Z,0.51
2023-01-30T06:51:59.923Z,0.53
2023-01-30T06:54:29.070Z,0.53
2023-01-30T06:56:58.285Z,0.53
2023-01-30T06:59:29.207Z,0.54
2023-01-30T07:01:58.860Z,0.53
2023-01-30T07:04:28.243Z,0.54
2023-01-30T07:06:57.615Z,0.56
2023-01-30T07:09:28.718Z,0.56
2023-01-30T07:11:59.110Z,0.57
2023-01-30T07:14:28.554Z,0.56
2023-01-30T07:16:57.633Z,0.59
2023-01-30T07:19:29.191Z,0.59
2023-01-30T07:21:58.497Z,0.60
2023-01-30T07:24:28.568Z,0.61
2023-01-30T07:26:57.556Z,0.63
2023-01-30T07:29:28.974Z,0.63
2023-01-30T07:31:58.493Z,0.63
2023-01-30T07:34:28.857Z,0.59
2023-01-30T07:36:57.986Z,0.60
2023-01-30T07:39:28.746Z,0.59
2023-01-30T07:41:59.941Z,0.59
2023-01-30T07:44:29.211Z,0.57
2023-01-30T07:46:58.369Z,0.51
2023-01-30T07:49:28.791Z,0.49
2023-01-30T07:51:57.800Z,0.47
2023-01-30T07:54:29.248Z,0.44
2023-01-30T07:56:59.756Z,0.42
2023-01-30T07:59:28.734Z,0.34
2023-01-30T08:01:58.263Z,0.32
2023-01-30T08:04:39.452Z,0.26
2023-01-30T08:07:08.389Z,0.25
2023-01-30T08:09:38.807Z,0.22
2023-01-30T08:12:07.806Z,0.16
2023-01-30T08:14:37.876Z,0.14
2023-01-30T08:17:12.610Z,0.09
2023-01-30T08:19:41.804Z,0.08
2023-01-30T08:22:13.318Z,0.06
2023-01-30T08:24:43.224Z,0.08
2023-01-30T08:27:12.215Z,0.08
2023-01-30T08:29:41.413Z,0.09
2023-01-30T08:32:10.905Z,0.08
2023-01-30T08:34:40.203Z,0.08
2023-01-30T08:37:09.136Z,0.06
2023-01-30T08:39:38.273Z,0.05
2023-01-30T08:42:07.257Z,0.01
2023-01-30T08:44:36.262Z,0.04
2023-01-30T08:47:05.838Z,0.01
2023-01-30T08:49:35.404Z,0.02
2023-01-30T08:52:05.033Z,0.01
2023-01-30T08:54:34.225Z,0.01
2023-01-30T08:57:03.472Z,0.01
2023-01-30T08:59:34.031Z,0.01
2023-01-30T09:02:03.913Z,0.04
2023-01-30T09:04:33.315Z,0.05
2023-01-30T09:07:02.835Z,0.02
2023-01-30T09:09:32.467Z,0.02
2023-01-30T09:12:01.536Z,0.05
2023-01-30T09:14:34.245Z,0.05
2023-01-30T09:17:03.441Z,0.06
2023-01-30T09:19:37.111Z,0.09
2023-01-30T09:22:07.432Z,0.16
2023-01-30T09:24:37.272Z,0.19
2023-01-30T09:27:06.405Z,0.22
2023-01-30T09:29:35.888Z,0.25
2023-01-30T09:32:05.921Z,0.23
2023-01-30T09:34:35.277Z,0.25
2023-01-30T09:37:07.735Z,0.26
2023-01-30T09:39:37.362Z,0.25
2023-01-30T09:42:43.257Z,0.28
2023-01-30T09:45:36.775Z,0.30
2023-01-30T09:48:18.112Z,0.33
2023-01-30T09:51:09.723Z,0.37
2023-01-30T09:54:01.061Z,0.43
2023-01-30T09:56:35.738Z,0.44
2023-01-30T09:59:07.254Z,0.47
2023-01-30T10:01:48.828Z,0.49
2023-01-30T10:04:27.831Z,0.49
2023-01-30T10:07:05.198Z,0.49
2023-01-30T10:09:43.516Z,0.47
2023-01-30T10:12:28.257Z,0.47
2023-01-30T10:15:14.917Z,0.49
2023-01-30T10:17:55.272Z,0.49
2023-01-30T10:20:35.914Z,0.50
2023-01-30T10:23:40.768Z,0.50
2023-01-30T10:26:13.573Z,0.47
2023-01-30T10:29:06.072Z,0.50
2023-01-30T10:31:44.461Z,0.50
2023-01-30T10:34:19.629Z,0.49
2023-01-30T10:36:55.898Z,0.49
2023-01-30T10:39:49.611Z,0.51
2023-01-30T10:42:32.273Z,0.54
2023-01-30T10:45:11.608Z,0.57
2023-01-30T10:47:56.254Z,0.57
2023-01-30T10:50:29.316Z,0.60
2023-01-30T10:53:10.048Z,0.64
2023-01-30T10:55:45.753Z,0.65
2023-01-30T10:58:25.946Z,0.68
2023-01-30T11:01:00.229Z,0.74
2023-01-30T11:03:35.805Z,0.75
2023-01-30T11:06:10.981Z,0.77
2023-01-30T11:08:40.234Z,0.78
2023-01-30T11:11:29.550Z,0.81
2023-01-30T11:14:07.104Z,0.81
2023-01-30T11:16:44.713Z,0.82
2023-01-30T11:19:20.370Z,0.87
2023-01-30T11:21:53.975Z,0.89
2023-01-30T11:24:29.901Z,0.92
2023-01-30T11:27:12.715Z,0.98
2023-01-30T11:29:42.479Z,1.02
2023-01-30T11:32:22.243Z,1.06
2023-01-30T11:35:11.865Z,1.12
2023-01-30T11:37:43.682Z,1.20
2023-01-30T11:40:27.543Z,1.29
2023-01-30T11:43:04.990Z,1.33
2023-01-30T11:45:40.941Z,1.40
2023-01-30T11:48:33.846Z,1.40
2023-01-30T11:51:09.833Z,1.43
2023-01-30T11:53:44.957Z,1.43
2023-01-30T11:56:23.101Z,1.44
2023-01-30T11:58:58.386Z,1.43
2023-01-30T12:01:35.472Z,1.40
2023-01-30T12:04:11.857Z,1.39
2023-01-30T12:06:42.934Z,1.37
2023-01-30T12:09:33.285Z,1.34
2023-01-30T12:12:02.835Z,1.32
2023-01-30T12:14:44.319Z,1.30
2023-01-30T12:17:22.500Z,1.27
2023-01-30T12:20:03.171Z,1.29
2023-01-30T12:22:38.176Z,1.26
2023-01-30T12:25:17.855Z,1.26
2023-01-30T12:27:56.138Z,1.26
2023-01-30T12:30:34.513Z,1.27
2023-01-30T12:33:06.252Z,1.30
2023-01-30T12:35:50.282Z,1.30
2023-01-30T12:38:33.779Z,1.32
2023-01-30T12:41:19.059Z,1.32
2023-01-30T12:44:07.153Z,1.34
2023-01-30T12:46:55.051Z,1.34
2023-01-30T12:49:43.979Z,1.33
2023-01-30T12:52:33.648Z,1.33
2023-01-30T12:55:16.402Z,1.36
2023-01-30T12:57:52.034Z,1.36
2023-01-30T13:00:29.029Z,1.36
2023-01-30T13:03:14.842Z,1.34
2023-01-30T13:05:53.845Z,1.33
2023-01-30T13:08:39.907Z,1.34
2023-01-30T13:11:22.986Z,1.33
2023-01-30T13:13:57.830Z,1.34
2023-01-30T13:16:36.546Z,1.34
2023-01-30T13:19:13.028Z,1.34
2023-01-30T13:21:47.009Z,1.36
2023-01-30T13:24:22.367Z,1.39
2023-01-30T13:26:57.890Z,1.34
2023-01-30T13:29:37.918Z,1.37
2023-01-30T13:32:14.928Z,1.39
2023-01-30T13:34:48.313Z,1.39
2023-01-30T13:37:19.362Z,1.39
2023-01-30T13:39:52.510Z,1.40
2023-01-30T13:42:33.642Z,1.43
2023-01-30T13:45:06.636Z,1.43
2023-01-30T13:47:50.917Z,1.43
2023-01-30T13:50:34.316Z,1.46
2023-01-30T13:53:08.541Z,1.47
2023-01-30T13:55:47.617Z,1.46
2023-01-30T13:58:34.083Z,1.47
2023-01-30T14:01:04.719Z,1.50
2023-01-30T14:03:34.893Z,1.50
2023-01-30T14:06:32.881Z,1.53
2023-01-30T14:09:17.604Z,1.53
2023-01-30T14:11:48.911Z,1.54
2023-01-30T14:14:37.746Z,1.58
2023-01-30T14:17:15.417Z,1.58
2023-01-30T14:19:53.988Z,1.58
2023-01-30T14:22:42.058Z,1.58
2023-01-30T14:25:43.365Z,1.61
2023-01-30T14:28:51.391Z,1.62
2023-01-30T14:31:54.539Z,1.65
2023-01-30T14:34:44.548Z,1.61
2023-01-30T14:37:50.855Z,1.64
2023-01-30T14:40:36.765Z,1.62
2023-01-30T14:43:39.878Z,1.62
2023-01-30T14:46:54.470Z,1.64
2023-01-30T14:49:35.402Z,1.62
2023-01-30T14:52:23.741Z,1.62
2023-01-30T14:54:59.636Z,1.65
2023-01-30T14:57:34.253Z,1.64
2023-01-30T15:00:19.286Z,1.61
2023-01-30T15:02:55.824Z,1.64
2023-01-30T15:05:36.421Z,1.64
2023-01-30T15:08:16.322Z,1.62
2023-01-30T15:11:10.597Z,1.62
2023-01-30T15:14:02.549Z,1.68
2023-01-30T15:17:09.347Z,1.67
2023-01-30T15:19:57.923Z,1.68
2023-01-30T15:22:48.405Z,1.64
2023-01-30T15:25:34.472Z,1.68
2023-01-30T15:28:35.535Z,1.68
2023-01-30T15:31:21.006Z,1.68
2023-01-30T15:33:55.139Z,1.72
2023-01-30T15:36:35.634Z,1.72
2023-01-30T15:39:19.364Z,1.72
2023-01-30T15:41:49.447Z,1.78
2023-01-30T15:44:47.941Z,1.77
2023-01-30T15:47:40.094Z,1.78
2023-01-30T15:50:11.553Z,1.78
2023-01-30T15:52:44.619Z,1.78
2023-01-30T15:55:20.354Z,1.79
2023-01-30T15:57:53.447Z,1.81
2023-01-30T16:00:30.492Z,1.83
2023-01-30T16:03:02.046Z,1.82
2023-01-30T16:05:31.985Z,1.85
2023-01-30T16:08:19.828Z,1.86
2023-01-30T16:10:50.215Z,1.90
2023-01-30T16:13:23.900Z,1.90
2023-01-30T16:16:02.142Z,1.93
2023-01-30T16:18:52.143Z,1.96
2023-01-30T16:21:33.745Z,1.98
2023-01-30T16:24:17.002Z,2.00
2023-01-30T16:26:51.690Z,2.00
2023-01-30T16:29:28.481Z,2.02
2023-01-30T16:32:00.104Z,2.03
2023-01-30T16:34:32.979Z,2.06
2023-01-30T16:37:07.535Z,2.07
2023-01-30T16:39:38.260Z,2.10
2023-01-30T16:42:29.231Z,2.09
2023-01-30T16:45:42.705Z,2.13
2023-01-30T16:48:30.882Z,2.14
2023-01-30T16:51:16.368Z,2.17
2023-01-30T16:54:02.700Z,2.17
2023-01-30T16:56:36.153Z,2.17
2023-01-30T16:59:07.259Z,2.20
2023-01-30T17:01:40.434Z,2.18
2023-01-30T17:04:21.595Z,2.23
2023-01-30T17:06:55.518Z,2.24
2023-01-30T17:09:44.312Z,2.23
2023-01-30T17:12:42.832Z,2.24
2023-01-30T17:15:31.308Z,2.26
2023-01-30T17:18:06.225Z,2.29
2023-01-30T17:20:54.941Z,2.29
2023-01-30T17:23:36.370Z,2.30
2023-01-30T17:26:26.693Z,2.30
2023-01-30T17:28:59.894Z,2.34
2023-01-30T17:31:43.789Z,2.32
2023-01-30T17:34:17.413Z,2.33
2023-01-30T17:36:52.327Z,2.33
2023-01-30T17:39:29.775Z,2.33
2023-01-30T17:42:10.569Z,2.34
2023-01-30T17:44:45.106Z,2.33
2023-01-30T17:47:26.776Z,2.37
2023-01-30T17:50:02.771Z,2.37
2023-01-30T17:52:36.182Z,2.37
2023-01-30T17:55:13.710Z,2.40
2023-01-30T17:57:50.679Z,2.41
2023-01-30T18:00:29.137Z,2.40
2023-01-30T18:03:07.321Z,2.43
2023-01-30T18:05:44.757Z,2.44
2023-01-30T18:08:18.424Z,2.47
2023-01-30T18:10:54.517Z,2.48
2023-01-30T18:13:31.162Z,2.50
2023-01-30T18:16:26.402Z,2.51
2023-01-30T18:18:56.792Z,2.53
2023-01-30T18:21:28.228Z,2.54
2023-01-30T18:23:57.070Z,2.55
2023-01-30T18:26:27.210Z,2.55
2023-01-30T18:28:56.586Z,2.57
2023-01-30T18:31:28.590Z,2.58
2023-01-30T18:33:58.511Z,2.54
2023-01-30T18:36:29.345Z,2.57
2023-01-30T18:38:58.292Z,2.57
2023-01-30T18:41:28.599Z,2.60
2023-01-30T18:44:00.395Z,2.58
2023-01-30T18:46:32.206Z,2.57
2023-01-30T18:49:01.758Z,2.60
2023-01-30T18:51:33.970Z,2.55
2023-01-30T18:54:03.457Z,2.55
2023-01-30T18:56:35.348Z,2.53
2023-01-30T18:59:06.013Z,2.55
2023-01-30T19:01:42.029Z,2.51
2023-01-30T19:04:12.167Z,2.48
2023-01-30T19:06:45.357Z,2.44
2023-01-30T19:09:21.257Z,2.41
2023-01-30T19:12:13.961Z,2.41
2023-01-30T19:14:47.934Z,2.34
2023-01-30T19:17:24.143Z,2.32
2023-01-30T19:20:18.216Z,2.27
2023-01-30T19:23:02.809Z,2.30
2023-01-30T19:25:40.182Z,2.30
2023-01-30T19:28:14.772Z,2.30
2023-01-30T19:30:51.576Z,2.29
2023-01-30T19:33:31.789Z,2.32
2023-01-30T19:36:15.722Z,2.30
2023-01-30T19:38:52.498Z,2.36
2023-01-30T19:41:30.799Z,2.37
2023-01-30T19:44:09.086Z,2.36
2023-01-30T19:46:41.917Z,2.37
2023-01-30T19:49:17.771Z,2.38
2023-01-30T19:51:52.585Z,2.38
2023-01-30T19:54:31.440Z,2.41
2023-01-30T19:57:20.517Z,2.43
2023-01-30T19:59:53.235Z,2.41
2023-01-30T20:02:31.214Z,2.44
2023-01-30T20:05:07.343Z,2.44
2023-01-30T20:07:45.459Z,2.44
2023-01-30T20:10:22.554Z,2.44
2023-01-30T20:13:04.069Z,2.44
2023-01-30T20:15:48.653Z,2.43
2023-01-30T20:18:29.808Z,2.44
2023-01-30T20:21:12.672Z,2.47
2023-01-30T20:23:46.850Z,2.43
2023-01-30T20:26:20.538Z,2.45
2023-01-30T20:28:54.223Z,2.44
2023-01-30T20:31:30.629Z,2.44
2023-01-30T20:34:09.290Z,2.43
2023-01-30T20:36:39.128Z,2.45
2023-01-30T20:39:09.255Z,2.45
2023-01-30T20:41:38.938Z,2.45
2023-01-30T20:44:11.359Z,2.47
2023-01-30T20:46:42.399Z,2.53
2023-01-30T20:49:14.514Z,2.48
2023-01-30T20:51:44.810Z,2.50
2023-01-30T20:54:14.792Z,2.51
2023-01-30T20:56:46.021Z,2.53
2023-01-30T20:59:17.368Z,2.51
2023-01-30T21:01:46.473Z,2.50
2023-01-30T21:04:17.225Z,2.47
2023-01-30T21:06:47.174Z,2.45
2023-01-30T21:09:18.426Z,2.44
2023-01-30T21:11:48.104Z,2.43
2023-01-30T21:14:17.474Z,2.40
2023-01-30T21:16:47.084Z,2.40
2023-01-30T21:19:17.510Z,2.38
2023-01-30T21:21:50.202Z,2.36
2023-01-30T21:24:21.971Z,2.34
2023-01-30T21:26:51.388Z,2.33
2023-01-30T21:29:23.543Z,2.27
2023-01-30T21:31:52.992Z,2.29
2023-01-30T21:34:22.660Z,2.24
2023-01-30T21:37:06.136Z,2.21
2023-01-30T21:39:54.384Z,2.21
2023-01-30T21:42:41.650Z,2.18
2023-01-30T21:45:11.111Z,2.18
2023-01-30T21:47:42.228Z,2.16
2023-01-30T21:50:13.236Z,2.14
2023-01-30T21:52:42.327Z,2.13
2023-01-30T21:55:11.700Z,2.10
2023-01-30T21:57:41.702Z,2.06
2023-01-30T22:00:15.904Z,2.02
2023-01-30T22:02:43.981Z,1.99
2023-01-30T22:05:12.928Z,2.00
2023-01-30T22:07:42.109Z,1.98
2023-01-30T22:10:12.416Z,1.98
2023-01-30T22:12:42.280Z,1.99
2023-01-30T22:15:12.722Z,2.00
2023-01-30T22:17:42.126Z,2.00
2023-01-30T22:20:13.452Z,2.02
2023-01-30T22:22:42.648Z,2.03
2023-01-30T22:25:12.616Z,2.03
2023-01-30T22:27:42.008Z,2.05
2023-01-30T22:30:14.542Z,2.06
2023-01-30T22:32:43.543Z,2.06
2023-01-30T22:35:12.600Z,2.09
2023-01-30T22:37:41.879Z,2.10
2023-01-30T22:40:12.880Z,2.12
2023-01-30T22:42:48.760Z,2.12
2023-01-30T22:45:17.252Z,2.13
2023-01-30T22:47:46.227Z,2.16
2023-01-30T22:50:16.852Z,2.14
2023-01-30T22:52:48.812Z,2.16
2023-01-30T22:55:18.471Z,2.18
2023-01-30T22:57:48.446Z,2.20
2023-01-30T23:00:19.778Z,2.21
2023-01-30T23:02:49.135Z,2.24
2023-01-30T23:05:19.063Z,2.24
2023-01-30T23:07:49.026Z,2.27
2023-01-30T23:10:18.529Z,2.29
2023-01-30T23:13:05.890Z,2.27
2023-01-30T23:15:39.065Z,2.30
2023-01-30T23:18:28.614Z,2.29
2023-01-30T23:20:57.693Z,2.30
2023-01-30T23:23:28.633Z,2.30
2023-01-30T23:26:01.041Z,2.29
2023-01-30T23:28:31.158Z,2.30
2023-01-30T23:31:06.966Z,2.34
2023-01-30T23:33:36.555Z,2.36
2023-01-30T23:36:08.280Z,2.37
2023-01-30T23:38:38.872Z,2.38
2023-01-30T23:41:11.905Z,2.40
2023-01-30T23:43:42.732Z,2.41
2023-01-30T23:46:17.269Z,2.41
2023-01-30T23:48:48.363Z,2.43
2023-01-30T23:51:20.476Z,2.41
2023-01-30T23:53:50.320Z,2.45
2023-01-30T23:56:22.147Z,2.45
2023-01-30T23:58:51.354Z,2.43
